Time;durP1;ratioP1;P1;durP2;ratioP2;P2;SDS_P1;SDS_P2;PMS_P1;PMS_P2;Temp;Humidity;BMP_temperature;BMP_pressure;BME280_temperature;BME280_humidity;BME280_pressure;Samples;Min_cycle;Max_cycle;Signal;HPM_P1;HPM_P2
2023/11/11 00:03:50;;;;;;;29.60;15.83;;;;;;;5.79;100.00;99336.06;5043704;57;1140860;-74
2023/11/11 00:08:56;;;;;;;29.13;17.57;;;;;;;5.73;100.00;99331.28;5058112;56;1140833;-75
2023/11/11 00:14:02;;;;;;;36.17;17.13;;;;;;;5.60;100.00;99330.55;5097828;56;1138871;-75
2023/11/11 00:19:11;;;;;;;27.43;13.73;;;;;;;5.48;100.00;99327.07;5097088;57;1139230;-74
2023/11/11 00:24:15;;;;;;;34.33;19.73;;;;;;;5.38;100.00;99325.23;5097467;57;1138835;-72
2023/11/11 00:29:22;;;;;;;26.02;14.90;;;;;;;5.29;100.00;99334.17;5106405;56;1138876;-73
2023/11/11 00:34:27;;;;;;;24.40;11.20;;;;;;;5.19;100.00;99335.81;5025990;56;1138672;-74
2023/11/11 00:39:33;;;;;;;25.30;11.95;;;;;;;5.11;100.00;99323.73;5022736;57;1140629;-74
2023/11/11 00:44:44;;;;;;;31.25;15.98;;;;;;;5.05;100.00;99328.11;5068310;57;1140876;-73
2023/11/11 00:49:50;;;;;;;33.63;16.67;;;;;;;4.97;100.00;99323.08;5030451;57;1138821;-74
2023/11/11 00:54:56;;;;;;;22.37;13.03;;;;;;;4.98;100.00;99320.83;5036473;57;1138790;-73
2023/11/11 01:00:03;;;;;;;20.97;10.83;;;;;;;5.00;100.00;99315.00;5037668;57;1138751;-74
2023/11/11 01:05:09;;;;;;;23.87;11.20;;;;;;;4.93;100.00;99319.38;5028902;57;1138965;-74
2023/11/11 01:10:18;;;;;;;20.90;11.37;;;;;;;5.01;100.00;99314.06;5012327;57;1140931;-74
2023/11/11 01:15:23;;;;;;;25.45;12.33;;;;;;;5.07;100.00;99310.96;5033587;57;1141139;-75
2023/11/11 01:20:28;;;;;;;31.20;13.50;;;;;;;5.04;100.00;99312.02;5012125;57;1139014;-74
2023/11/11 01:25:34;;;;;;;22.80;12.40;;;;;;;4.93;100.00;99328.55;4949899;58;1138777;-74
2023/11/11 01:30:39;;;;;;;21.10;11.20;;;;;;;4.87;100.00;99325.08;5007540;57;1138765;-74
2023/11/11 01:35:47;;;;;;;22.40;11.17;;;;;;;4.81;100.00;99322.89;5026776;57;1138975;-74
2023/11/11 01:40:52;;;;;;;18.17;9.87;;;;;;;4.73;100.00;99321.32;4954580;57;1138702;-75
2023/11/11 01:46:06;;;;;;;21.20;10.00;;;;;;;4.64;100.00;99327.20;4958399;57;1136776;-73
2023/11/11 01:51:13;;;;;;;20.30;11.05;;;;;;;4.62;100.00;99330.87;4968712;58;1139020;-75
2023/11/11 01:56:18;;;;;;;28.47;13.23;;;;;;;4.50;100.00;99324.28;4914957;58;1138859;-74
2023/11/11 02:01:24;;;;;;;20.47;11.33;;;;;;;4.41;100.00;99321.02;4956634;57;1138938;-74
2023/11/11 02:06:31;;;;;;;18.45;10.00;;;;;;;4.21;100.00;99313.27;4974358;57;1139148;-74
2023/11/11 02:11:37;;;;;;;18.10;10.05;;;;;;;4.10;100.00;99306.66;4929822;57;1138832;-74
2023/11/11 02:16:43;;;;;;;20.53;9.87;;;;;;;4.00;100.00;99301.68;4966706;57;1138946;-74
2023/11/11 02:21:48;;;;;;;17.87;10.97;;;;;;;3.97;100.00;99303.70;4966913;57;1136920;-74
2023/11/11 02:26:54;;;;;;;19.77;11.13;;;;;;;4.01;100.00;99305.13;4994774;57;1138927;-74
2023/11/11 02:31:59;;;;;;;19.00;10.70;;;;;;;3.93;100.00;99297.84;4975127;57;1138954;-74
2023/11/11 02:37:05;;;;;;;19.17;10.27;;;;;;;3.87;100.00;99285.17;5129233;55;1138501;-74
2023/11/11 02:42:11;;;;;;;18.33;10.47;;;;;;;3.97;100.00;99281.46;5152680;55;1138668;-74
2023/11/11 02:47:16;;;;;;;24.87;12.77;;;;;;;3.91;100.00;99291.87;5116185;55;1138738;-73
2023/11/11 02:52:22;;;;;;;23.20;11.60;;;;;;;3.72;100.00;99295.39;5096350;56;1138799;-74
2023/11/11 02:57:28;;;;;;;18.67;10.87;;;;;;;3.68;100.00;99285.61;5073835;56;1139054;-74
2023/11/11 03:02:33;;;;;;;19.57;10.28;;;;;;;3.70;100.00;99286.34;5053961;56;1138724;-74
2023/11/11 03:07:39;;;;;;;21.75;10.25;;;;;;;3.65;100.00;99284.53;5067543;56;1138804;-74
2023/11/11 03:12:45;;;;;;;19.60;10.93;;;;;;;3.64;100.00;99280.72;4991505;57;1138667;-74
2023/11/11 03:17:50;;;;;;;19.77;11.67;;;;;;;3.71;100.00;99274.11;4994745;56;1138933;-74
2023/11/11 03:22:56;;;;;;;22.60;11.43;;;;;;;3.73;100.00;99268.30;5129838;55;1138665;-74
2023/11/11 03:28:01;;;;;;;20.03;11.43;;;;;;;3.67;100.00;99268.72;4990459;57;1138896;-74
2023/11/11 03:33:07;;;;;;;17.33;11.17;;;;;;;3.66;100.00;99265.77;5110076;55;1138645;-74
2023/11/11 03:38:12;;;;;;;20.30;11.10;;;;;;;3.60;100.00;99255.72;5123550;55;1138478;-74
2023/11/11 03:43:18;;;;;;;22.10;10.63;;;;;;;3.51;100.00;99267.66;5130102;55;1139017;-74
2023/11/11 03:48:24;;;;;;;20.97;12.20;;;;;;;3.45;100.00;99262.36;5156475;55;1138860;-74
2023/11/11 03:53:29;;;;;;;22.63;10.77;;;;;;;3.48;100.00;99257.41;5114920;55;1138660;-73
2023/11/11 03:58:35;;;;;;;22.27;12.15;;;;;;;3.36;100.00;99263.48;5132169;55;1138983;-74
2023/11/11 04:03:43;;;;;;;22.57;11.70;;;;;;;3.30;100.00;99262.58;5152946;55;1148156;-74
2023/11/11 04:08:48;;;;;;;27.57;13.33;;;;;;;3.29;100.00;99269.58;5142352;55;1138575;-74
2023/11/11 04:13:55;;;;;;;24.05;11.55;;;;;;;3.29;100.00;99264.81;5141809;55;1138537;-74
2023/11/11 04:19:01;;;;;;;27.00;11.50;;;;;;;3.38;100.00;99265.02;5161059;55;1138764;-74
2023/11/11 04:24:07;;;;;;;20.50;11.73;;;;;;;3.42;100.00;99264.34;5056003;56;1138642;-73
2023/11/11 04:29:13;;;;;;;26.10;12.83;;;;;;;3.42;100.00;99265.19;5035318;56;1138785;-74
2023/11/11 04:34:20;;;;;;;72.43;37.10;;;;;;;3.36;100.00;99266.89;5044261;56;1138898;-74
2023/11/11 04:39:26;;;;;;;42.33;22.25;;;;;;;3.18;100.00;99276.84;5083039;56;1138899;-75
2023/11/11 04:44:32;;;;;;;51.20;28.87;;;;;;;3.04;100.00;99278.70;4992671;57;1138954;-74
2023/11/11 04:49:38;;;;;;;67.43;23.87;;;;;;;3.01;100.00;99275.81;4908286;57;1138792;-74
2023/11/11 04:54:44;;;;;;;105.63;33.10;;;;;;;2.96;100.00;99275.74;5018074;57;1138780;-74
2023/11/11 04:59:49;;;;;;;110.53;37.77;;;;;;;2.90;100.00;99278.78;4967356;57;1140899;-74
2023/11/11 05:04:55;;;;;;;69.87;27.20;;;;;;;2.74;100.00;99271.95;4967244;57;1140889;-74
2023/11/11 05:10:02;;;;;;;42.13;21.33;;;;;;;2.66;100.00;99266.84;4987395;57;1138770;-74
2023/11/11 05:15:19;;;;;;;40.93;19.17;;;;;;;2.64;100.00;99271.32;4968590;57;1138566;-74
2023/11/11 05:20:17;;;;;;;26.63;14.30;;;;;;;2.71;100.00;99279.14;4964913;57;1138671;-74
2023/11/11 05:25:22;;;;;;;44.93;22.60;;;;;;;2.78;100.00;99284.31;4968210;56;1138838;-74
2023/11/11 05:30:28;;;;;;;57.53;28.05;;;;;;;2.69;100.00;99292.75;4987962;57;1138897;-74
2023/11/11 05:35:34;;;;;;;75.37;33.57;;;;;;;2.61;100.00;99295.00;4968114;57;1138734;-73
2023/11/11 05:40:39;;;;;;;49.18;26.52;;;;;;;2.60;100.00;99294.66;4967863;57;1138847;-74
2023/11/11 05:45:45;;;;;;;44.70;21.65;;;;;;;2.50;100.00;99287.88;4987644;57;1138736;-74
2023/11/11 05:50:50;;;;;;;42.27;21.70;;;;;;;2.42;100.00;99297.52;4968136;57;1138836;-74
2023/11/11 05:55:56;;;;;;;42.57;20.47;;;;;;;2.34;100.00;99293.70;4956817;57;1138917;-74
2023/11/11 06:01:01;;;;;;;34.13;16.67;;;;;;;2.29;100.00;99302.30;5064817;56;1138779;-74
2023/11/11 06:06:07;;;;;;;27.63;13.83;;;;;;;2.15;100.00;99310.97;4960517;57;1138596;-74
2023/11/11 06:11:13;;;;;;;23.83;12.83;;;;;;;2.07;100.00;99302.80;4970826;56;1138506;-74
2023/11/11 06:16:19;;;;;;;22.95;13.48;;;;;;;2.09;100.00;99306.16;5045033;56;1138768;-74
2023/11/11 06:21:24;;;;;;;22.33;12.73;;;;;;;2.15;100.00;99302.30;4993847;56;1139008;-74
2023/11/11 06:26:30;;;;;;;31.90;16.00;;;;;;;2.22;100.00;99303.14;5025716;56;1138689;-74
2023/11/11 06:31:36;;;;;;;31.77;14.85;;;;;;;2.25;100.00;99316.47;4963930;57;1138727;-74
2023/11/11 06:36:41;;;;;;;41.35;15.15;;;;;;;2.16;100.00;99312.64;5065311;56;1138876;-74
2023/11/11 06:41:47;;;;;;;28.87;15.33;;;;;;;2.16;100.00;99311.34;4952138;57;1138862;-74
2023/11/11 06:46:52;;;;;;;34.07;16.70;;;;;;;2.21;100.00;99314.51;4974809;57;1138853;-73
2023/11/11 06:51:58;;;;;;;31.53;17.13;;;;;;;2.22;100.00;99314.05;5017609;57;1138576;-74
2023/11/11 06:57:05;;;;;;;34.80;19.13;;;;;;;2.30;100.00;99313.08;4997548;56;1139159;-74
2023/11/11 07:02:12;;;;;;;36.23;18.67;;;;;;;2.44;100.00;99316.49;4972294;57;1138795;-74
2023/11/11 07:07:18;;;;;;;33.90;17.73;;;;;;;2.64;100.00;99310.47;5010157;57;1138942;-73
2023/11/11 07:12:23;;;;;;;36.83;17.50;;;;;;;2.85;100.00;99314.78;4981023;56;1138945;-73
2023/11/11 07:17:29;;;;;;;26.82;14.93;;;;;;;3.11;100.00;99306.07;4973257;56;1138879;-74
2023/11/11 07:22:35;;;;;;;21.10;13.00;;;;;;;3.41;100.00;99313.63;5123088;55;1138423;-73
2023/11/11 07:27:40;;;;;;;29.82;18.85;;;;;;;3.78;100.00;99306.74;5144188;55;1140744;-74
2023/11/11 07:32:47;;;;;;;30.62;18.60;;;;;;;3.87;100.00;99308.71;5132536;55;1140701;-76
2023/11/11 07:37:54;;;;;;;30.40;19.33;;;;;;;4.30;100.00;99315.69;5131935;55;1138641;-73
2023/11/11 07:43:00;;;;;;;26.40;16.23;;;;;;;4.72;100.00;99304.41;5106809;56;1138554;-73
2023/11/11 07:48:06;;;;;;;30.05;18.35;;;;;;;5.02;100.00;99299.53;5135787;55;1138757;-75
2023/11/11 07:53:12;;;;;;;26.77;16.73;;;;;;;5.45;100.00;99304.17;5108361;56;1138821;-73
2023/11/11 07:58:18;;;;;;;26.03;17.93;;;;;;;5.83;100.00;99311.23;5097128;56;1141006;-73
2023/11/11 08:03:27;;;;;;;29.47;18.13;;;;;;;6.21;100.00;99306.15;5116396;56;1140756;-72
2023/11/11 08:08:34;;;;;;;28.73;16.80;;;;;;;6.47;100.00;99309.32;5058684;57;1138841;-73
2023/11/11 08:13:40;;;;;;;29.30;19.13;;;;;;;6.56;100.00;99308.13;5108838;56;1138816;-73
2023/11/11 08:18:45;;;;;;;27.73;17.75;;;;;;;6.65;100.00;99317.05;5155450;55;1138487;-73
2023/11/11 08:23:52;;;;;;;26.12;16.82;;;;;;;6.99;100.00;99317.30;5064020;56;1140841;-73
2023/11/11 08:29:01;;;;;;;36.80;21.17;;;;;;;7.16;100.00;99318.54;5016993;56;1140422;-72
2023/11/11 08:34:07;;;;;;;27.67;17.13;;;;;;;7.35;100.00;99309.45;5066488;56;1140781;-75
2023/11/11 08:39:13;;;;;;;23.90;15.98;;;;;;;7.45;100.00;99315.28;5038435;56;1261961;-74
2023/11/11 08:44:19;;;;;;;19.00;13.50;;;;;;;7.54;100.00;99317.96;5048535;56;1140853;-73
2023/11/11 08:49:25;;;;;;;22.87;14.65;;;;;;;7.58;100.00;99318.55;5126474;55;1140904;-73
2023/11/11 08:54:31;;;;;;;25.40;14.65;;;;;;;7.55;100.00;99315.68;5061904;56;1140746;-75
2023/11/11 08:59:37;;;;;;;24.20;15.38;;;;;;;7.46;100.00;99319.10;5092434;56;1141001;-74
2023/11/11 09:04:42;;;;;;;23.93;13.67;;;;;;;7.37;100.00;99319.85;5113553;55;1141105;-74
2023/11/11 09:09:48;;;;;;;19.63;11.97;;;;;;;7.31;100.00;99312.48;5150455;55;1140763;-73
2023/11/11 09:14:53;;;;;;;20.33;11.17;;;;;;;7.23;100.00;99320.16;5141413;55;1140823;-74
2023/11/11 09:19:59;;;;;;;16.07;11.83;;;;;;;7.21;100.00;99310.25;5097331;55;1140781;-73
2023/11/11 09:25:07;;;;;;;18.70;13.27;;;;;;;7.20;100.00;99310.73;5095967;56;1140812;-73
2023/11/11 09:30:13;;;;;;;23.00;12.93;;;;;;;7.15;100.00;99309.46;5104337;56;1140672;-74
2023/11/11 09:35:19;;;;;;;22.80;14.23;;;;;;;7.11;100.00;99318.08;5086926;56;1140943;-72
2023/11/11 09:40:26;;;;;;;25.03;15.97;;;;;;;7.00;100.00;99316.81;5105202;55;1140814;-73
2023/11/11 09:45:32;;;;;;;19.13;12.60;;;;;;;6.86;100.00;99321.05;5145495;55;1150504;-74
2023/11/11 09:50:38;;;;;;;33.67;19.23;;;;;;;6.87;100.00;99316.98;5109917;55;1140761;-73
2023/11/11 09:55:44;;;;;;;46.20;26.93;;;;;;;6.82;100.00;99317.00;5110771;56;1141035;-74
2023/11/11 10:00:50;;;;;;;56.45;33.65;;;;;;;6.81;100.00;99317.48;5162317;55;1141031;-76
2023/11/11 10:05:56;;;;;;;60.60;32.20;;;;;;;6.89;100.00;99316.36;5117360;55;1138943;-74
2023/11/11 10:11:01;;;;;;;45.60;26.70;;;;;;;6.98;100.00;99308.22;5073620;55;1140718;-74
2023/11/11 10:16:18;;;;;;;52.27;24.63;;;;;;;7.02;100.00;99309.16;5133987;55;1140912;-74
2023/11/11 10:21:24;;;;;;;46.40;24.10;;;;;;;7.14;100.00;99308.63;5138828;55;1140753;-73
2023/11/11 10:26:30;;;;;;;41.85;19.65;;;;;;;7.24;100.00;99299.00;5134014;56;1140880;-72
2023/11/11 10:31:39;;;;;;;33.53;19.53;;;;;;;7.30;100.00;99295.04;5154410;56;1141715;-72
2023/11/11 10:36:46;;;;;;;29.02;17.52;;;;;;;7.46;100.00;99288.84;5156765;55;1140857;-73
2023/11/11 10:41:54;;;;;;;30.13;17.57;;;;;;;7.68;100.00;99293.11;5133701;55;1141112;-74
2023/11/11 10:47:00;;;;;;;25.90;17.60;;;;;;;7.81;100.00;99291.58;5158790;55;1141291;-72
2023/11/11 10:52:08;;;;;;;25.30;14.90;;;;;;;7.93;100.00;99287.91;5199857;55;1140874;-73
2023/11/11 10:57:16;;;;;;;21.57;12.70;;;;;;;8.09;100.00;99290.41;5200378;55;1140942;-73
2023/11/11 11:02:23;;;;;;;24.37;13.93;;;;;;;8.27;100.00;99287.94;5146114;55;1141099;-73
2023/11/11 11:07:33;;;;;;;21.23;12.47;;;;;;;8.35;100.00;99286.00;5215117;55;1140593;-73
2023/11/11 11:12:49;;;;;;;22.60;13.35;;;;;;;8.44;100.00;99283.38;5211026;55;1140732;-72
2023/11/11 11:17:55;;;;;;;22.97;13.40;;;;;;;8.55;100.00;99271.91;5210409;55;1140855;-76
2023/11/11 11:23:04;;;;;;;16.43;11.20;;;;;;;8.68;100.00;99272.47;5231099;55;1140835;-68
2023/11/11 11:28:18;;;;;;;20.53;12.27;;;;;;;8.79;100.00;99271.02;5152960;55;1140565;-67
2023/11/11 11:33:35;;;;;;;17.37;9.73;;;;;;;9.03;100.00;99274.53;5136080;55;1140656;-68
2023/11/11 11:38:42;;;;;;;24.90;14.43;;;;;;;9.32;100.00;99274.50;5081733;55;1138710;-67
2023/11/11 11:43:54;;;;;;;16.40;8.10;;;;;;;9.69;100.00;99271.09;5067297;57;1140844;-68
2023/11/11 11:49:00;;;;;;;12.07;7.77;;;;;;;9.97;100.00;99268.83;5119078;56;1138510;-66
2023/11/11 11:54:05;;;;;;;54.37;19.37;;;;;;;10.14;100.00;99267.23;5122423;56;1138519;-68
2023/11/11 11:59:15;;;;;;;25.12;10.68;;;;;;;10.44;100.00;99273.56;5220901;55;1142704;-68
2023/11/11 12:04:22;;;;;;;14.97;8.70;;;;;;;10.76;100.00;99270.91;5170757;55;1142961;-68
2023/11/11 12:09:33;;;;;;;15.43;7.80;;;;;;;11.09;100.00;99268.91;5117909;55;1140754;-68
2023/11/11 12:14:36;;;;;;;10.33;7.50;;;;;;;10.96;100.00;99267.63;5060834;56;1150262;-69
2023/11/11 12:19:47;;;;;;;10.13;7.10;;;;;;;10.77;100.00;99267.28;5043571;57;1140701;-67
2023/11/11 12:24:55;;;;;;;17.30;7.40;;;;;;;10.55;100.00;99268.05;5043684;57;1140817;-73
2023/11/11 12:30:02;;;;;;;13.30;7.50;;;;;;;10.44;100.00;99264.31;5077879;56;1140717;-72
2023/11/11 12:35:09;;;;;;;9.97;6.73;;;;;;;10.31;100.00;99265.64;4976776;57;1140859;-75
2023/11/11 12:40:17;;;;;;;9.83;7.03;;;;;;;10.20;100.00;99268.01;5057149;55;1138639;-71
2023/11/11 12:45:22;;;;;;;10.13;6.37;;;;;;;10.11;100.00;99272.80;5169570;55;1138747;-71
2023/11/11 12:50:34;;;;;;;12.07;7.03;;;;;;;10.06;100.00;99271.94;5217175;55;1140801;-77
2023/11/11 12:55:41;;;;;;;12.90;7.40;;;;;;;10.00;100.00;99275.16;4986913;56;1140757;-74
2023/11/11 13:00:55;;;;;;;14.50;7.05;;;;;;;9.94;100.00;99281.48;4911609;58;1140961;-73
2023/11/11 13:06:05;;;;;;;13.27;7.97;;;;;;;9.93;100.00;99279.86;5148022;55;1138393;-71
2023/11/11 13:11:12;;;;;;;11.40;7.40;;;;;;;9.95;100.00;99284.48;5014426;57;1138896;-73
2023/11/11 13:16:17;;;;;;;14.93;8.90;;;;;;;9.98;100.00;99282.88;5078364;56;1138793;-72
2023/11/11 13:21:32;;;;;;;11.87;6.77;;;;;;;9.99;100.00;99285.86;5033720;56;1139133;-73
2023/11/11 13:26:31;;;;;;;11.53;7.20;;;;;;;10.01;100.00;99286.06;5036749;56;1138770;-71
2023/11/11 13:31:38;;;;;;;12.00;7.57;;;;;;;9.98;100.00;99285.52;5027909;56;1146417;-71
2023/11/11 13:36:44;;;;;;;17.02;8.08;;;;;;;9.94;100.00;99282.32;5047762;56;1138695;-75
2023/11/11 13:41:50;;;;;;;11.55;7.53;;;;;;;9.92;100.00;99286.11;5066166;56;1138700;-70
2023/11/11 13:46:55;;;;;;;14.00;8.17;;;;;;;9.93;100.00;99283.81;5047827;56;1138819;-73
2023/11/11 13:52:01;;;;;;;12.33;7.43;;;;;;;9.88;100.00;99287.72;5101460;55;1138782;-71
2023/11/11 13:57:06;;;;;;;11.57;7.10;;;;;;;9.86;100.00;99284.38;5117036;56;1138569;-73
2023/11/11 14:02:12;;;;;;;14.83;9.43;;;;;;;9.89;100.00;99288.55;5093419;57;1138912;-74
2023/11/11 14:07:18;;;;;;;18.63;9.47;;;;;;;9.92;100.00;99290.08;5105261;55;1138987;-70
2023/11/11 14:12:24;;;;;;;26.40;12.63;;;;;;;9.92;100.00;99292.72;5141873;55;1138822;-75
2023/11/11 14:17:30;;;;;;;43.93;24.13;;;;;;;9.88;100.00;99297.45;5135872;55;1140864;-71
2023/11/11 14:22:36;;;;;;;99.28;40.15;;;;;;;9.84;100.00;99307.95;5046957;56;1141072;-75
2023/11/11 14:27:48;;;;;;;83.72;30.12;;;;;;;9.78;100.00;99309.34;5030641;55;1141061;-74
2023/11/11 14:32:50;;;;;;;44.00;18.35;;;;;;;9.76;100.00;99304.72;4981448;58;1141037;-73
2023/11/11 14:37:57;;;;;;;48.40;19.13;;;;;;;9.76;100.00;99313.13;4962310;57;1140959;-68
2023/11/11 14:43:03;;;;;;;36.10;17.63;;;;;;;9.74;100.00;99313.75;4962120;57;1140957;-68
2023/11/11 14:48:09;;;;;;;31.73;14.60;;;;;;;9.71;100.00;99321.95;5080931;55;1140955;-77
2023/11/11 14:53:15;;;;;;;17.92;10.08;;;;;;;9.65;100.00;99325.98;5092144;55;1141210;-71
2023/11/11 14:58:20;;;;;;;16.80;10.23;;;;;;;9.58;100.00;99328.03;5100173;56;1141151;-71
2023/11/11 15:03:26;;;;;;;19.17;9.70;;;;;;;9.50;100.00;99326.08;5087928;56;1140947;-74
2023/11/11 15:08:34;;;;;;;21.10;11.07;;;;;;;9.41;100.00;99334.37;5103908;55;1138575;-72
2023/11/11 15:13:39;;;;;;;22.00;10.40;;;;;;;9.30;100.00;99333.69;5124172;55;1141163;-72
2023/11/11 15:18:45;;;;;;;18.00;9.90;;;;;;;9.24;100.00;99334.23;5156263;55;1140780;-78
2023/11/11 15:23:55;;;;;;;21.83;11.27;;;;;;;9.22;100.00;99351.52;5131865;55;1145560;-69
2023/11/11 15:28:58;;;;;;;31.67;14.80;;;;;;;9.28;100.00;99346.19;5102783;55;1140799;-73
2023/11/11 15:34:06;;;;;;;65.20;30.00;;;;;;;9.33;100.00;99355.33;5057664;56;1140544;-73
2023/11/11 15:39:22;;;;;;;80.57;41.60;;;;;;;9.29;100.00;99368.48;5014488;57;1140871;-72
2023/11/11 15:44:21;;;;;;;75.50;37.77;;;;;;;9.27;100.00;99371.73;5052809;56;1140887;-73
2023/11/11 15:49:28;;;;;;;66.67;34.43;;;;;;;9.29;100.00;99382.98;5075321;55;1140951;-70
2023/11/11 15:54:34;;;;;;;50.97;26.77;;;;;;;9.21;100.00;99382.83;5066840;55;1140825;-72
2023/11/11 15:59:40;;;;;;;83.17;35.90;;;;;;;9.20;100.00;99382.48;5047184;55;1146760;-74
2023/11/11 16:04:45;;;;;;;89.65;41.20;;;;;;;9.22;100.00;99385.81;5091095;55;1140867;-69
2023/11/11 16:09:51;;;;;;;144.47;63.63;;;;;;;9.26;100.00;99387.70;5150754;55;1140659;-73
2023/11/11 16:14:56;;;;;;;180.50;81.12;;;;;;;9.27;100.00;99399.44;5097040;55;1143178;-72
2023/11/11 16:20:00;;;;;;;160.70;73.93;;;;;;;9.24;100.00;99394.91;5104971;56;1142816;-72
2023/11/11 16:25:10;;;;;;;131.03;61.33;;;;;;;9.09;100.00;99407.19;5149323;56;1142760;-74
2023/11/11 16:30:13;;;;;;;125.10;52.73;;;;;;;8.97;100.00;99408.28;5128063;55;1142913;-70
2023/11/11 16:35:18;;;;;;;95.03;43.50;;;;;;;8.87;100.00;99414.48;5127156;55;1142775;-73
2023/11/11 16:40:23;;;;;;;91.47;40.03;;;;;;;8.73;100.00;99420.48;5099388;56;1140989;-74
2023/11/11 16:45:27;;;;;;;93.07;39.80;;;;;;;8.64;100.00;99428.38;5093127;55;1140792;-73
2023/11/11 16:50:34;;;;;;;70.10;36.60;;;;;;;8.52;100.00;99433.39;5063659;56;1140733;-73
2023/11/11 16:55:39;;;;;;;73.73;34.43;;;;;;;8.49;100.00;99432.34;5091091;56;1140820;-72
2023/11/11 17:00:44;;;;;;;76.80;35.67;;;;;;;8.48;100.00;99431.50;5066488;56;1140792;-76
2023/11/11 17:05:51;;;;;;;65.73;36.07;;;;;;;8.44;100.00;99453.80;5081167;55;1140785;-75
2023/11/11 17:10:55;;;;;;;76.00;35.00;;;;;;;8.31;100.00;99459.73;5088355;56;1140557;-72
2023/11/11 17:16:00;;;;;;;90.33;42.17;;;;;;;8.17;100.00;99455.64;5113266;55;1140684;-73
2023/11/11 17:21:07;;;;;;;95.00;46.53;;;;;;;8.08;100.00;99445.42;5058610;57;1140862;-72
2023/11/11 17:26:12;;;;;;;162.13;69.83;;;;;;;8.06;100.00;99452.61;5047936;56;1140842;-74
2023/11/11 17:31:18;;;;;;;131.20;63.30;;;;;;;8.07;100.00;99454.76;5058990;56;1142743;-77
2023/11/11 17:36:23;;;;;;;170.63;74.20;;;;;;;8.01;100.00;99451.31;5106083;56;1142734;-76
2023/11/11 17:41:28;;;;;;;113.77;53.60;;;;;;;8.00;100.00;99447.84;5073411;55;1143272;-69
2023/11/11 17:46:32;;;;;;;230.18;85.75;;;;;;;7.95;100.00;99451.33;4995932;56;1143340;-74
2023/11/11 17:51:37;;;;;;;151.37;66.57;;;;;;;7.91;100.00;99459.64;5162301;55;1140851;-69
2023/11/11 17:56:43;;;;;;;143.23;63.40;;;;;;;7.83;100.00;99451.52;5142850;55;1142911;-72
2023/11/11 18:01:47;;;;;;;119.37;52.90;;;;;;;7.71;100.00;99455.53;5139613;55;1142687;-76
2023/11/11 18:06:53;;;;;;;211.70;76.37;;;;;;;7.56;100.00;99462.06;5145361;55;1142859;-73
2023/11/11 18:11:58;;;;;;;246.60;114.50;;;;;;;7.48;100.00;99465.81;5113841;55;1142899;-75
2023/11/11 18:17:04;;;;;;;178.93;84.57;;;;;;;7.49;100.00;99463.52;5090287;55;1144987;-77
2023/11/11 18:22:09;;;;;;;173.90;84.53;;;;;;;7.46;100.00;99462.47;5140981;55;1142885;-77
2023/11/11 18:27:16;;;;;;;179.47;86.10;;;;;;;7.52;100.00;99476.42;5016061;56;1142915;-74
2023/11/11 18:32:22;;;;;;;428.48;198.47;;;;;;;7.54;100.00;99477.61;5046742;56;1142952;-71
2023/11/11 18:37:27;;;;;;;338.63;152.07;;;;;;;7.49;100.00;99483.24;5020834;57;1143101;-73
2023/11/11 18:42:33;;;;;;;335.13;150.97;;;;;;;7.45;100.00;99489.73;5088396;56;1145082;-72
2023/11/11 18:47:38;;;;;;;313.67;141.90;;;;;;;7.46;100.00;99493.20;5008584;57;1145031;-71
2023/11/11 18:52:44;;;;;;;262.70;118.73;;;;;;;7.43;100.00;99489.02;5111739;56;1148475;-74
2023/11/11 18:57:49;;;;;;;229.65;104.70;;;;;;;7.40;100.00;99497.98;4996898;57;1145194;-74
2023/11/11 19:02:55;;;;;;;221.45;94.58;;;;;;;7.38;100.00;99495.95;4970884;56;1145033;-73
2023/11/11 19:08:01;;;;;;;187.67;87.03;;;;;;;7.33;100.00;99502.57;5105273;56;1141060;-70
2023/11/11 19:13:07;;;;;;;203.00;87.70;;;;;;;7.29;100.00;99501.13;5084451;56;1142984;-72
2023/11/11 19:18:12;;;;;;;230.93;108.00;;;;;;;7.24;100.00;99496.71;5075747;56;1142897;-74
2023/11/11 19:23:20;;;;;;;253.40;111.13;;;;;;;7.05;100.00;99502.11;5040144;56;1145055;-72
2023/11/11 19:28:27;;;;;;;297.50;133.07;;;;;;;6.95;100.00;99501.19;5055784;56;1145158;-74
2023/11/11 19:33:32;;;;;;;317.37;143.67;;;;;;;6.94;100.00;99507.39;5041522;57;1145049;-70
2023/11/11 19:38:38;;;;;;;370.73;178.63;;;;;;;6.93;100.00;99500.94;5031634;56;1145031;-76
2023/11/11 19:43:48;;;;;;;358.40;165.30;;;;;;;6.96;100.00;99505.96;5054805;56;1142970;-72
2023/11/11 19:48:53;;;;;;;255.87;117.82;;;;;;;6.91;100.00;99505.00;5053483;56;1145038;-72
2023/11/11 19:54:03;;;;;;;202.93;87.05;;;;;;;6.90;100.00;99509.06;5084580;56;1144927;-73
2023/11/11 19:59:06;;;;;;;286.53;125.10;;;;;;;6.86;100.00;99503.70;5045941;57;1142864;-78
2023/11/11 20:04:12;;;;;;;211.90;92.17;;;;;;;6.81;100.00;99504.06;5058460;56;1145232;-72
2023/11/11 20:09:20;;;;;;;174.53;76.83;;;;;;;6.87;100.00;99500.97;5009256;57;1142858;-70
2023/11/11 20:14:24;;;;;;;195.00;84.90;;;;;;;6.95;100.00;99510.38;4955494;57;1143062;-72
2023/11/11 20:19:30;;;;;;;189.13;80.50;;;;;;;6.88;100.00;99510.97;5028230;57;1143129;-72
2023/11/11 20:24:35;;;;;;;131.10;59.10;;;;;;;6.84;100.00;99502.52;4992010;56;1140809;-72
2023/11/11 20:29:41;;;;;;;111.57;50.80;;;;;;;6.79;100.00;99516.48;4981865;57;1140723;-73
2023/11/11 20:34:47;;;;;;;168.23;71.70;;;;;;;6.79;100.00;99522.21;4989835;57;1142782;-72
2023/11/11 20:39:52;;;;;;;228.02;98.95;;;;;;;6.77;100.00;99513.13;4969604;57;1142907;-73
2023/11/11 20:44:58;;;;;;;155.57;69.13;;;;;;;6.76;100.00;99519.34;5046340;56;1143004;-75
2023/11/11 20:50:06;;;;;;;104.77;48.40;;;;;;;6.84;100.00;99527.48;5064661;56;1142835;-71
2023/11/11 20:55:13;;;;;;;183.63;72.23;;;;;;;6.82;100.00;99520.66;5047911;56;1143022;-75
2023/11/11 21:00:20;;;;;;;167.73;68.17;;;;;;;6.74;100.00;99519.93;5042994;56;1142939;-75
2023/11/11 21:05:26;;;;;;;144.75;55.60;;;;;;;6.65;100.00;99519.34;5047530;56;1141228;-74
2023/11/11 21:10:31;;;;;;;79.47;36.43;;;;;;;6.64;100.00;99525.08;5103176;56;1142952;-74
2023/11/11 21:15:37;;;;;;;117.53;48.27;;;;;;;6.66;100.00;99519.70;5078562;56;1141010;-76
2023/11/11 21:20:42;;;;;;;107.73;49.57;;;;;;;6.73;100.00;99523.98;4992172;56;1142947;-71
2023/11/11 21:25:49;;;;;;;120.00;56.65;;;;;;;6.71;100.00;99522.82;4979273;56;1142909;-71
2023/11/11 21:30:54;;;;;;;157.05;74.42;;;;;;;6.80;100.00;99523.88;4959055;57;1142663;-76
2023/11/11 21:36:00;;;;;;;137.00;59.42;;;;;;;6.90;100.00;99514.31;4960112;57;1143000;-74
2023/11/11 21:41:07;;;;;;;96.87;47.27;;;;;;;6.80;100.00;99527.35;4986927;56;1142847;-70
2023/11/11 21:46:12;;;;;;;83.30;37.00;;;;;;;6.76;100.00;99521.97;4955056;57;1138773;-76
2023/11/11 21:51:18;;;;;;;66.20;30.43;;;;;;;6.67;100.00;99524.84;4897700;57;1138923;-75
2023/11/11 21:56:23;;;;;;;89.13;35.63;;;;;;;6.53;100.00;99531.64;4985755;56;1138627;-73
2023/11/11 22:01:29;;;;;;;95.80;38.07;;;;;;;6.31;100.00;99525.02;4961643;58;1140971;-71
2023/11/11 22:06:34;;;;;;;117.47;46.13;;;;;;;6.33;100.00;99524.44;5030834;56;1140815;-73
2023/11/11 22:11:40;;;;;;;96.90;40.73;;;;;;;6.46;100.00;99521.23;5009376;56;1142967;-73
2023/11/11 22:16:47;;;;;;;100.40;43.53;;;;;;;6.45;100.00;99518.23;5012636;56;1140832;-72
2023/11/11 22:21:52;;;;;;;109.17;48.85;;;;;;;6.35;100.00;99523.37;4966540;57;1142871;-73
2023/11/11 22:26:58;;;;;;;116.70;50.80;;;;;;;6.35;100.00;99516.80;5007629;56;1142912;-73
2023/11/11 22:32:03;;;;;;;138.23;64.00;;;;;;;6.35;100.00;99519.91;4942193;57;1142573;-74
2023/11/11 22:37:11;;;;;;;121.90;56.50;;;;;;;6.48;100.00;99514.55;4942340;57;1142843;-74
2023/11/11 22:42:17;;;;;;;105.00;48.17;;;;;;;6.58;100.00;99522.91;4891314;58;1142962;-74
2023/11/11 22:47:22;;;;;;;129.30;50.63;;;;;;;6.56;100.00;99516.13;4875075;58;1142943;-71
2023/11/11 22:52:29;;;;;;;88.83;40.50;;;;;;;6.46;100.00;99513.82;4977137;57;1142813;-70